Startpagina
METAR-TAF:

METAR-TAF

Vliegvelden :

Productieplatform

K14-fa-1c, Nederland

breedte: 53-16-10N, lengte: 3-37-40E, hoogte: 28 m

Actueel weer

Dit bericht is 18 minuten geleden gemaakt, om 13:25 UTC
Wind 44 kt uit het westen
Temperatuur 10°C
Vochtigheid 82%
Druk 1013 hPa
Zicht 10 km of meer
Weinig wolken op 2200 ft
Verspreide wolken op 3600 ft

METAR: EHKV 291325Z AUTO 27044KT 9999 FEW022 SCT036 10/07 Q1013

Tijdstip: 14:43 (13:43 UTC)


TAF: ontbreekt

Waarnemingen en weersverwachtingen van meer dan 4000 vliegvelden (METAR en TAF).

De beschikbare stations zijn de gele en rode punten op de kaart.

Ga met uw muis naar het station om de naam te zien.

Klik dan om waarnemingen en weersverwachtingen te zien.

kaart wijzigen: klik op de groene knoppen met een zwart kruis om in te zoomen, op de groene knop met een streepje om uit te zoomen of op de groene pijlen voor aangrenzende kaarten.


METAR-TAF: